Time;durP1;ratioP1;P1;durP2;ratioP2;P2;SDS_P1;SDS_P2;PMS_P1;PMS_P2;Temp;Humidity;BMP_temperature;BMP_pressure;BME280_temperature;BME280_humidity;BME280_pressure;Samples;Min_cycle;Max_cycle;Signal;HPM_P1;HPM_P2
2022/07/02 00:00:07;;;;;;;5.20;2.08;;;;;;;11.62;96.85;98008.13;5049286;28;20523;-67
2022/07/02 00:02:42;;;;;;;4.13;2.15;;;;;;;11.58;96.84;98005.88;5046602;28;20328;-67
2022/07/02 00:05:12;;;;;;;4.15;2.33;;;;;;;11.59;97.99;98006.72;5010117;28;20494;-67
2022/07/02 00:07:39;;;;;;;4.28;2.30;;;;;;;11.44;97.43;98009.97;5009921;28;20046;-67
2022/07/02 00:10:06;;;;;;;5.20;2.22;;;;;;;11.42;98.35;98002.06;5023305;28;20049;-67
2022/07/02 00:12:32;;;;;;;5.63;2.30;;;;;;;11.53;98.39;98004.97;5009676;28;20049;-67
2022/07/02 00:14:59;;;;;;;4.13;2.30;;;;;;;11.59;97.28;98004.00;5010176;28;20045;-67
2022/07/02 00:17:27;;;;;;;4.57;2.20;;;;;;;11.61;97.37;98006.47;5013042;28;20441;-67
2022/07/02 00:19:53;;;;;;;4.05;2.10;;;;;;;11.53;97.02;98002.25;5029545;28;20320;-67
2022/07/02 00:22:21;;;;;;;3.47;2.03;;;;;;;11.48;97.24;98010.28;5029086;28;20041;-67
2022/07/02 00:24:47;;;;;;;4.60;2.05;;;;;;;11.44;97.09;97999.94;5009321;28;20033;-67
2022/07/02 00:27:18;;;;;;;5.20;2.25;;;;;;;11.44;97.79;98001.81;5009597;28;20049;-67
2022/07/02 00:29:54;;;;;;;3.85;2.00;;;;;;;11.38;97.03;98006.31;5009422;28;20489;-67
2022/07/02 00:32:23;;;;;;;4.32;2.00;;;;;;;11.21;97.20;98000.84;5009274;28;20457;-67
2022/07/02 00:34:50;;;;;;;6.15;2.10;;;;;;;11.18;97.81;98006.75;5010083;28;20100;-67
2022/07/02 00:37:19;;;;;;;3.78;2.05;;;;;;;11.15;98.25;98005.34;5009096;28;20037;-67
2022/07/02 00:39:45;;;;;;;4.15;2.08;;;;;;;11.12;98.37;98002.28;5026418;28;20041;-67
2022/07/02 00:42:14;;;;;;;3.72;2.00;;;;;;;11.11;98.65;97997.91;5022725;28;20045;-67
2022/07/02 00:44:41;;;;;;;3.38;2.13;;;;;;;11.11;99.08;98003.34;5009690;28;20045;-66
2022/07/02 00:47:10;;;;;;;5.22;2.28;;;;;;;11.16;99.10;98003.44;5008967;28;20500;-67
2022/07/02 00:49:38;;;;;;;4.28;2.25;;;;;;;11.24;98.44;98005.78;5008366;28;20046;-67
2022/07/02 00:52:06;;;;;;;5.30;2.22;;;;;;;11.29;97.93;98005.91;5016710;28;20083;-66
2022/07/02 00:54:35;;;;;;;3.88;2.28;;;;;;;11.22;98.27;98002.50;5048853;28;20045;-66
2022/07/02 00:57:05;;;;;;;3.17;2.00;;;;;;;11.21;98.07;98002.72;5048822;28;20098;-66
2022/07/02 00:59:33;;;;;;;5.22;2.28;;;;;;;11.09;98.46;98000.06;5019685;28;20046;-66
2022/07/02 01:02:00;;;;;;;5.82;2.35;;;;;;;11.04;98.59;98000.78;5008779;28;20465;-66
2022/07/02 01:04:29;;;;;;;5.05;3.42;;;;;;;11.07;98.59;97994.88;5009094;28;20528;-66
2022/07/02 01:07:06;;;;;;;3.78;2.30;;;;;;;10.90;99.08;97998.31;5008415;28;20052;-66
2022/07/02 01:12:24;;;;;;;6.05;2.08;;;;;;;10.81;99.86;97991.63;5028452;28;20474;-66
2022/07/02 01:14:52;;;;;;;4.65;2.20;;;;;;;10.89;99.69;97987.72;5021275;28;20037;-67
2022/07/02 01:17:19;;;;;;;5.43;2.38;;;;;;;10.94;99.13;97990.53;5027873;28;20397;-66
2022/07/02 01:19:46;;;;;;;3.75;1.88;;;;;;;10.91;99.00;97991.03;5022921;28;20056;-66
2022/07/02 01:22:23;;;;;;;5.25;2.20;;;;;;;10.96;98.95;97984.88;5008803;28;20050;-67
2022/07/02 01:24:53;;;;;;;3.03;1.95;;;;;;;10.99;98.63;97982.50;5008258;28;20046;-66
2022/07/02 01:27:22;;;;;;;4.68;2.67;;;;;;;10.92;98.87;97979.13;5011221;28;20038;-66
2022/07/02 01:29:50;;;;;;;3.83;2.10;;;;;;;10.88;99.28;97986.88;5028565;28;20045;-66
2022/07/02 01:32:17;;;;;;;4.00;2.25;;;;;;;10.77;99.23;97977.72;5026453;28;20042;-66
2022/07/02 01:34:49;;;;;;;6.07;2.17;;;;;;;10.76;99.58;97989.63;5007974;28;20120;-67
2022/07/02 01:37:19;;;;;;;5.50;2.50;;;;;;;10.66;99.54;97982.09;5008325;28;20052;-67
2022/07/02 01:39:47;;;;;;;5.53;2.40;;;;;;;10.68;99.72;97986.47;5014437;28;20053;-67
2022/07/02 01:42:14;;;;;;;4.82;2.25;;;;;;;10.53;100.00;97979.66;5007928;28;20045;-67
2022/07/02 01:44:43;;;;;;;5.38;2.55;;;;;;;10.39;100.00;97979.84;5007330;28;20045;-66
2022/07/02 01:47:11;;;;;;;4.15;2.10;;;;;;;10.26;100.00;97982.81;5006680;28;20050;-67
2022/07/02 01:49:38;;;;;;;5.43;2.60;;;;;;;10.31;100.00;97987.53;5008418;28;20065;-66
2022/07/02 01:52:06;;;;;;;4.95;2.67;;;;;;;10.36;100.00;97984.94;5015869;28;20037;-67
2022/07/02 01:54:33;;;;;;;7.57;3.03;;;;;;;10.38;100.00;97983.63;5047358;28;20041;-67
2022/07/02 01:57:00;;;;;;;4.30;2.60;;;;;;;10.39;100.00;97982.56;5047655;28;20036;-67
2022/07/02 01:59:27;;;;;;;6.60;2.70;;;;;;;10.33;100.00;97977.28;5047359;28;20468;-66
2022/07/02 02:01:54;;;;;;;7.63;2.53;;;;;;;10.41;100.00;97991.28;5047512;28;20059;-67
2022/07/02 02:04:20;;;;;;;4.93;2.45;;;;;;;10.44;100.00;97981.91;5015104;28;20737;-67
2022/07/02 02:06:47;;;;;;;6.63;2.58;;;;;;;10.36;100.00;97984.94;5006875;28;20046;-67
2022/07/02 02:09:14;;;;;;;4.10;2.03;;;;;;;10.18;100.00;97988.56;5019692;28;20363;-67
2022/07/02 02:11:40;;;;;;;3.70;2.10;;;;;;;10.08;100.00;97983.72;5023856;28;20034;-67
2022/07/02 02:14:07;;;;;;;4.00;2.28;;;;;;;10.02;100.00;97982.78;5023879;28;20245;-67
2022/07/02 02:16:33;;;;;;;6.82;2.65;;;;;;;9.92;100.00;97983.38;5011160;28;20045;-67
2022/07/02 02:19:00;;;;;;;7.95;2.45;;;;;;;9.86;100.00;97990.53;5028210;28;20054;-67
2022/07/02 02:21:28;;;;;;;4.55;2.15;;;;;;;10.01;100.00;97984.69;5013905;28;20045;-67
2022/07/02 02:23:56;;;;;;;4.57;2.22;;;;;;;10.09;100.00;97982.66;5006958;28;20046;-66
2022/07/02 02:26:24;;;;;;;3.55;2.03;;;;;;;9.98;100.00;97979.72;5012741;28;20041;-66
2022/07/02 02:28:50;;;;;;;9.68;2.53;;;;;;;9.86;100.00;97985.13;5027176;28;20421;-67
2022/07/02 02:31:17;;;;;;;4.35;2.38;;;;;;;9.89;100.00;97995.44;5027296;28;20520;-66
2022/07/02 02:33:44;;;;;;;4.50;2.38;;;;;;;9.94;100.00;97985.81;5010846;28;20046;-66
2022/07/02 02:36:10;;;;;;;7.05;2.10;;;;;;;9.90;100.00;97988.19;5007189;28;20041;-66
2022/07/02 02:38:37;;;;;;;9.55;2.65;;;;;;;9.91;100.00;97986.31;5014973;28;20433;-67
2022/07/02 02:41:07;;;;;;;6.35;2.80;;;;;;;9.92;100.00;97983.38;5027092;28;20045;-67
2022/07/02 02:43:35;;;;;;;7.50;2.53;;;;;;;9.93;100.00;97987.72;5019581;28;20041;-67
2022/07/02 02:46:02;;;;;;;5.97;2.67;;;;;;;9.93;100.00;97984.19;5007090;28;20049;-67
2022/07/02 02:48:29;;;;;;;3.80;1.90;;;;;;;9.87;100.00;97983.22;5007276;28;20045;-67
2022/07/02 02:50:57;;;;;;;5.88;2.58;;;;;;;9.76;100.00;97988.38;5007323;28;20041;-66
2022/07/02 02:53:24;;;;;;;5.65;2.10;;;;;;;9.74;100.00;97992.38;5036852;28;20424;-66
2022/07/02 02:55:51;;;;;;;3.83;2.20;;;;;;;9.77;100.00;97997.34;5037290;28;20042;-66
2022/07/02 02:58:18;;;;;;;5.25;2.33;;;;;;;9.67;100.00;97992.47;5007122;28;20057;-66
2022/07/02 03:00:44;;;;;;;5.53;2.33;;;;;;;9.66;100.00;97990.00;5007076;28;20069;-67
2022/07/02 03:03:12;;;;;;;6.22;2.38;;;;;;;9.72;100.00;97994.47;5007172;28;20053;-67
2022/07/02 03:05:38;;;;;;;7.05;2.38;;;;;;;9.96;100.00;97987.25;5007067;28;20494;-66
2022/07/02 03:08:05;;;;;;;7.15;2.47;;;;;;;9.98;100.00;97995.13;5009894;28;20080;-66
2022/07/02 03:10:32;;;;;;;6.90;2.67;;;;;;;9.94;100.00;97993.94;5026474;28;20041;-67
2022/07/02 03:12:58;;;;;;;5.88;2.10;;;;;;;9.80;100.00;97991.44;5029031;28;20303;-66
2022/07/02 03:15:26;;;;;;;6.45;2.47;;;;;;;9.78;100.00;97992.72;5014197;28;20038;-66
2022/07/02 03:17:52;;;;;;;6.03;2.50;;;;;;;9.76;100.00;97995.66;5018155;28;20436;-67
2022/07/02 03:20:19;;;;;;;4.63;2.58;;;;;;;9.81;100.00;97995.81;5026486;28;20512;-66
2022/07/02 03:22:45;;;;;;;8.55;2.83;;;;;;;9.87;100.00;97997.56;5014728;28;20103;-66
2022/07/02 03:25:12;;;;;;;4.65;2.45;;;;;;;9.84;100.00;97998.03;5025827;28;20053;-67
2022/07/02 03:27:39;;;;;;;5.97;3.00;;;;;;;9.82;100.00;97996.63;5021956;28;20071;-67
2022/07/02 03:30:07;;;;;;;5.95;2.80;;;;;;;9.78;100.00;97990.84;5041725;28;20048;-67
2022/07/02 03:32:33;;;;;;;5.05;2.38;;;;;;;9.68;100.00;97993.28;5012136;28;20556;-67
2022/07/02 03:35:00;;;;;;;7.55;2.83;;;;;;;9.64;100.00;98003.75;5027630;28;20056;-68
2022/07/02 03:37:28;;;;;;;6.47;3.10;;;;;;;9.61;100.00;98009.59;5034157;28;20460;-66
2022/07/02 03:39:55;;;;;;;7.97;2.83;;;;;;;9.68;100.00;98006.81;5011304;28;20046;-67
2022/07/02 03:42:23;;;;;;;6.85;2.95;;;;;;;9.83;100.00;98009.09;5010796;28;20049;-67
2022/07/02 03:44:50;;;;;;;5.75;2.50;;;;;;;9.76;100.00;98010.00;5010189;28;20050;-67
2022/07/02 03:47:17;;;;;;;8.60;2.90;;;;;;;9.88;100.00;98007.34;5010066;28;20053;-67
2022/07/02 03:49:43;;;;;;;5.03;2.50;;;;;;;9.95;100.00;98014.53;5010307;28;20045;-67
2022/07/02 03:52:10;;;;;;;3.78;2.30;;;;;;;9.92;100.00;98010.41;5019989;28;20467;-67
2022/07/02 03:54:37;;;;;;;4.50;2.28;;;;;;;9.89;100.00;98011.69;5040819;28;20038;-67
2022/07/02 03:57:04;;;;;;;7.10;2.35;;;;;;;9.90;100.00;98012.50;5010030;28;20045;-66
2022/07/02 03:59:31;;;;;;;5.38;2.13;;;;;;;9.92;100.00;98023.13;5010686;28;20046;-67
2022/07/02 04:01:57;;;;;;;5.47;2.30;;;;;;;9.84;100.00;98010.75;5009615;28;20518;-66
2022/07/02 04:04:24;;;;;;;8.10;2.63;;;;;;;9.88;100.00;98020.84;5009802;28;20163;-66
2022/07/02 04:06:51;;;;;;;6.55;2.80;;;;;;;9.90;100.00;98015.22;5009898;28;20038;-66
2022/07/02 04:09:17;;;;;;;4.95;2.78;;;;;;;10.01;100.00;98022.56;5022547;28;20492;-67
2022/07/02 04:11:44;;;;;;;11.77;3.42;;;;;;;10.07;100.00;98023.50;5021671;28;20465;-67
2022/07/02 04:14:10;;;;;;;4.35;2.38;;;;;;;10.13;100.00;98011.75;5009645;28;20049;-66
2022/07/02 04:16:37;;;;;;;6.35;3.03;;;;;;;10.18;100.00;98011.06;5009991;28;20045;-66
2022/07/02 04:19:04;;;;;;;10.20;2.90;;;;;;;10.21;100.00;98013.25;5026680;28;20091;-66
2022/07/02 04:21:40;;;;;;;7.30;3.03;;;;;;;10.32;100.00;98016.25;5029601;28;20512;-66
2022/07/02 04:24:07;;;;;;;6.63;2.42;;;;;;;10.33;100.00;98007.88;5024096;28;20032;-66
2022/07/02 04:26:34;;;;;;;9.63;2.53;;;;;;;10.37;100.00;98008.22;5036159;28;20033;-66
2022/07/02 04:29:01;;;;;;;6.88;3.03;;;;;;;10.43;100.00;98018.09;5017319;28;20671;-66
2022/07/02 04:31:29;;;;;;;5.72;3.00;;;;;;;10.50;100.00;98016.16;5009564;28;20096;-66
2022/07/02 04:33:56;;;;;;;6.70;3.75;;;;;;;10.63;100.00;98006.97;5009150;28;20360;-66
2022/07/02 04:36:22;;;;;;;6.22;2.92;;;;;;;10.70;100.00;98016.84;5009041;28;20052;-66
2022/07/02 04:38:49;;;;;;;6.78;3.13;;;;;;;10.75;100.00;98019.66;5016188;28;20489;-66
2022/07/02 04:41:15;;;;;;;6.53;2.67;;;;;;;10.80;100.00;98017.09;5009763;28;20050;-67
2022/07/02 04:43:42;;;;;;;6.35;2.60;;;;;;;10.89;100.00;98014.81;5009897;28;20125;-66
2022/07/02 04:46:08;;;;;;;5.07;2.50;;;;;;;10.98;100.00;98012.59;5008454;28;20049;-66
2022/07/02 04:48:35;;;;;;;6.47;3.08;;;;;;;11.09;100.00;98008.19;5009676;28;20057;-66
2022/07/02 04:51:02;;;;;;;7.65;3.45;;;;;;;11.19;100.00;98005.69;5026486;28;20421;-66
2022/07/02 04:53:28;;;;;;;4.22;2.60;;;;;;;11.29;100.00;98010.50;5023569;28;20046;-67
2022/07/02 04:55:55;;;;;;;5.85;2.70;;;;;;;11.45;100.00;98007.00;5029010;28;20042;-67
2022/07/02 04:58:21;;;;;;;8.00;2.78;;;;;;;11.57;100.00;98004.25;5030504;28;20496;-67
2022/07/02 05:00:48;;;;;;;11.63;2.58;;;;;;;11.70;100.00;98008.56;5036765;28;20048;-67
2022/07/02 05:03:14;;;;;;;7.20;2.70;;;;;;;11.86;100.00;98010.72;5041427;28;20079;-67
2022/07/02 05:05:41;;;;;;;7.18;2.90;;;;;;;11.95;100.00;98014.69;5036749;28;20045;-66
2022/07/02 05:08:08;;;;;;;5.15;2.70;;;;;;;12.06;99.59;98018.41;5015279;28;20059;-66
2022/07/02 05:10:34;;;;;;;6.75;2.70;;;;;;;12.08;99.69;98017.09;5036681;28;20422;-66
2022/07/02 05:13:03;;;;;;;5.60;2.60;;;;;;;12.14;100.00;98017.19;5025798;28;20041;-66
2022/07/02 05:15:31;;;;;;;3.85;2.45;;;;;;;12.22;100.00;98014.88;5021275;28;20041;-66
2022/07/02 05:17:57;;;;;;;7.30;3.05;;;;;;;12.34;99.99;98009.38;5025391;28;20050;-66
2022/07/02 05:20:24;;;;;;;3.90;2.13;;;;;;;12.50;99.41;98006.91;5008702;28;20038;-67
2022/07/02 05:22:51;;;;;;;6.15;2.67;;;;;;;12.60;99.00;98009.75;5008378;28;20053;-67
2022/07/02 05:25:17;;;;;;;3.45;2.05;;;;;;;12.67;99.04;98008.72;5008426;28;20053;-66
2022/07/02 05:27:44;;;;;;;5.20;2.15;;;;;;;12.85;98.14;98011.19;5008272;28;20057;-66
2022/07/02 05:30:11;;;;;;;3.67;2.10;;;;;;;13.02;97.73;98010.31;5008525;28;20056;-67
2022/07/02 05:32:37;;;;;;;5.63;2.40;;;;;;;13.22;97.06;98017.06;5006881;28;20042;-66
2022/07/02 05:35:04;;;;;;;5.20;2.30;;;;;;;13.35;96.03;98019.38;5007055;28;20524;-66
2022/07/02 05:37:31;;;;;;;3.13;1.70;;;;;;;13.51;96.16;98023.16;5008145;28;20057;-67
2022/07/02 05:39:57;;;;;;;2.95;1.75;;;;;;;13.65;95.80;98022.75;5010625;28;20049;-66
2022/07/02 05:42:24;;;;;;;3.33;2.08;;;;;;;13.80;95.43;98022.09;5008513;28;20045;-67
2022/07/02 05:44:50;;;;;;;6.15;2.75;;;;;;;13.95;95.10;98017.84;5007759;28;20045;-66
2022/07/02 05:47:17;;;;;;;5.10;2.30;;;;;;;14.08;94.51;98025.59;5007316;28;20042;-66
2022/07/02 05:49:43;;;;;;;5.72;2.10;;;;;;;14.19;94.50;98026.50;5008283;28;20046;-66
2022/07/02 05:52:10;;;;;;;4.72;1.70;;;;;;;14.28;94.75;98024.97;5007499;28;20052;-67
2022/07/02 05:54:37;;;;;;;3.35;2.03;;;;;;;14.31;93.74;98024.44;5008409;28;20052;-66
2022/07/02 05:57:04;;;;;;;3.15;1.70;;;;;;;14.36;93.12;98026.38;5007570;28;20042;-67
2022/07/02 05:59:31;;;;;;;4.78;1.83;;;;;;;14.44;91.43;98034.06;5007592;28;20049;-66
2022/07/02 06:01:57;;;;;;;4.43;1.60;;;;;;;14.54;90.30;98032.50;5008258;28;20046;-67
2022/07/02 06:04:24;;;;;;;3.15;1.70;;;;;;;14.60;89.41;98034.19;5007503;28;20046;-67
2022/07/02 06:09:36;;;;;;;2.78;1.45;;;;;;;14.86;88.93;98028.09;5024412;28;20049;-66
2022/07/02 06:12:02;;;;;;;4.72;1.58;;;;;;;14.99;88.77;98029.53;5030541;28;20044;-66
2022/07/02 06:14:29;;;;;;;2.65;1.23;;;;;;;15.11;88.46;98026.59;5015228;28;20046;-66
2022/07/02 06:16:55;;;;;;;3.92;1.27;;;;;;;15.21;88.08;98032.94;5032586;28;20041;-66
2022/07/02 06:19:22;;;;;;;3.78;1.60;;;;;;;15.26;88.16;98028.56;5018263;28;20045;-66
2022/07/02 06:21:49;;;;;;;4.30;1.40;;;;;;;15.33;88.50;98021.78;5006280;28;20133;-66
2022/07/02 06:24:15;;;;;;;2.38;1.27;;;;;;;15.39;86.38;98030.81;5014566;28;20107;-66
2022/07/02 06:26:42;;;;;;;2.53;1.10;;;;;;;15.42;85.98;98032.19;5046611;28;20041;-67
2022/07/02 06:29:08;;;;;;;3.90;1.30;;;;;;;15.48;85.47;98028.38;5047469;28;20432;-66
2022/07/02 06:31:36;;;;;;;2.05;1.13;;;;;;;15.53;84.11;98027.56;5011870;28;20096;-67
2022/07/02 06:34:03;;;;;;;2.92;1.40;;;;;;;15.65;84.63;98025.44;5007442;28;20053;-66
2022/07/02 06:36:30;;;;;;;4.10;1.70;;;;;;;15.65;83.21;98022.69;5006031;28;20050;-66
2022/07/02 06:38:57;;;;;;;3.60;1.55;;;;;;;15.71;82.10;98029.00;5017517;28;20041;-67
2022/07/02 06:44:28;;;;;;;1.17;0.80;;;;;;;15.93;81.08;98020.56;5004028;28;20413;-66
2022/07/02 06:46:55;;;;;;;1.27;0.75;;;;;;;16.03;79.93;98022.50;4997924;28;20096;-66
2022/07/02 06:49:21;;;;;;;1.75;1.00;;;;;;;16.25;77.56;98021.41;5004834;28;20045;-67
2022/07/02 06:51:48;;;;;;;3.47;1.15;;;;;;;16.33;77.29;98014.59;5024625;28;20041;-66
2022/07/02 06:54:14;;;;;;;1.52;0.88;;;;;;;16.37;78.24;98021.16;5007197;28;20697;-66
2022/07/02 06:56:41;;;;;;;1.48;0.93;;;;;;;16.46;77.75;98029.63;5006706;28;20037;-66
2022/07/02 06:59:07;;;;;;;2.20;1.00;;;;;;;16.48;76.42;98020.03;5006955;28;20409;-66
2022/07/02 07:01:34;;;;;;;1.98;1.08;;;;;;;16.58;75.69;98021.16;5007012;28;20046;-66
2022/07/02 07:04:07;;;;;;;2.30;0.90;;;;;;;16.68;75.28;98018.38;5007100;28;20517;-66
2022/07/02 07:06:54;;;;;;;3.05;1.25;;;;;;;16.86;75.15;98022.47;5007045;28;20498;-66
2022/07/02 07:09:24;;;;;;;2.40;0.82;;;;;;;16.90;74.41;98017.25;5016996;28;20064;-67
2022/07/02 07:11:50;;;;;;;1.33;0.90;;;;;;;16.85;73.85;98020.00;5032385;28;20061;-66
2022/07/02 07:14:18;;;;;;;1.65;0.88;;;;;;;16.93;74.37;98021.34;5020964;28;20041;-67
2022/07/02 07:16:45;;;;;;;2.33;0.95;;;;;;;17.02;74.08;98015.03;5039792;28;20063;-66
2022/07/02 07:19:11;;;;;;;1.83;1.00;;;;;;;17.09;72.66;98013.91;5040627;28;20041;-66
2022/07/02 07:21:42;;;;;;;1.95;0.80;;;;;;;17.21;73.35;98022.63;5047019;28;20056;-66
2022/07/02 07:24:09;;;;;;;2.88;0.90;;;;;;;17.29;72.80;98013.84;5031348;28;20046;-66
2022/07/02 07:26:38;;;;;;;1.70;0.98;;;;;;;17.37;75.04;98012.47;5006767;28;20037;-66
2022/07/02 07:29:06;;;;;;;2.78;1.00;;;;;;;17.43;74.91;98010.50;5023754;28;20448;-66
2022/07/02 07:31:34;;;;;;;3.80;0.90;;;;;;;17.65;74.25;98010.09;5011449;28;20092;-66
2022/07/02 07:34:01;;;;;;;1.83;0.90;;;;;;;17.74;73.00;98009.50;5007065;28;20050;-66
2022/07/02 07:36:29;;;;;;;1.38;0.70;;;;;;;17.91;73.28;98009.94;5005700;28;20462;-66
2022/07/02 07:38:56;;;;;;;2.78;0.90;;;;;;;18.15;72.91;98001.03;5017311;28;20048;-66
2022/07/02 07:41:23;;;;;;;4.93;1.00;;;;;;;18.29;71.43;98003.13;5023412;28;20440;-66
2022/07/02 07:43:51;;;;;;;1.52;0.68;;;;;;;18.42;69.20;98009.84;5007031;28;20050;-66
2022/07/02 07:46:20;;;;;;;1.02;0.65;;;;;;;18.52;66.16;98001.53;5006689;28;20053;-65
2022/07/02 07:48:47;;;;;;;1.33;0.60;;;;;;;18.46;63.53;98002.69;5005853;28;20046;-66
2022/07/02 07:51:15;;;;;;;1.10;0.60;;;;;;;18.29;62.37;97998.47;5007350;28;20610;-66
2022/07/02 07:53:43;;;;;;;1.77;0.70;;;;;;;18.32;64.04;98003.34;5034123;28;20132;-66
2022/07/02 07:56:13;;;;;;;0.80;0.50;;;;;;;18.42;65.64;98004.34;5005892;28;20127;-66
2022/07/02 07:58:39;;;;;;;2.10;0.80;;;;;;;18.57;66.08;98008.88;5008102;28;20060;-66
2022/07/02 08:01:06;;;;;;;1.27;0.70;;;;;;;18.71;66.14;98009.03;5009091;28;20049;-66
2022/07/02 08:03:32;;;;;;;3.00;0.80;;;;;;;18.81;64.50;97994.38;5012912;28;20042;-64
2022/07/02 08:05:59;;;;;;;2.90;0.85;;;;;;;19.02;63.25;97991.41;5009989;28;20050;-66
2022/07/02 08:08:25;;;;;;;1.50;0.65;;;;;;;19.26;60.14;97991.41;5016172;28;20053;-66
2022/07/02 08:10:52;;;;;;;1.30;0.52;;;;;;;19.40;58.49;97988.78;5011058;28;20374;-66
2022/07/02 08:13:19;;;;;;;1.05;0.40;;;;;;;19.39;57.62;97987.16;5010442;28;20449;-66
2022/07/02 08:15:45;;;;;;;1.02;0.60;;;;;;;19.36;59.18;97982.25;5011174;28;20030;-65
2022/07/02 08:18:12;;;;;;;1.80;0.63;;;;;;;19.31;58.06;97977.63;5028442;28;20052;-66
2022/07/02 08:20:39;;;;;;;0.93;0.60;;;;;;;19.34;59.70;97982.53;5022311;28;20045;-66
2022/07/02 08:23:12;;;;;;;5.05;0.88;;;;;;;19.44;56.85;97984.34;5009925;28;20046;-66
2022/07/02 08:25:39;;;;;;;1.45;0.50;;;;;;;19.53;57.79;97987.22;5009600;28;20046;-66
2022/07/02 08:28:05;;;;;;;0.98;0.50;;;;;;;19.59;57.18;97980.56;5009589;28;20061;-66
2022/07/02 08:30:32;;;;;;;1.35;0.70;;;;;;;19.63;56.44;97980.78;5009620;28;20045;-65
2022/07/02 08:32:59;;;;;;;1.15;0.50;;;;;;;19.49;55.64;97980.69;5009471;28;20046;-66
2022/07/02 08:35:25;;;;;;;1.20;0.60;;;;;;;19.60;56.65;97982.19;5009739;28;20042;-66
2022/07/02 08:37:52;;;;;;;0.88;0.57;;;;;;;19.57;54.00;97970.97;5010238;28;20057;-66
2022/07/02 08:40:23;;;;;;;1.77;0.50;;;;;;;19.67;53.08;97978.22;5009337;28;20042;-66
2022/07/02 08:42:52;;;;;;;0.70;0.50;;;;;;;19.67;53.71;97972.75;5009395;28;20487;-66
2022/07/02 08:45:21;;;;;;;0.77;0.43;;;;;;;19.92;53.71;97970.72;5009698;28;20509;-66
2022/07/02 08:47:51;;;;;;;0.80;0.55;;;;;;;20.00;52.54;97962.66;5007921;28;20042;-66
2022/07/02 08:50:19;;;;;;;3.17;0.70;;;;;;;19.81;51.88;97959.91;5009872;28;20045;-66
2022/07/02 08:52:48;;;;;;;2.20;0.55;;;;;;;19.94;50.58;97952.81;5027104;28;20603;-66
2022/07/02 08:55:15;;;;;;;1.13;0.52;;;;;;;19.98;49.71;97953.06;5013382;28;20453;-66
2022/07/02 08:57:43;;;;;;;0.75;0.40;;;;;;;20.04;47.83;97960.13;5008066;28;20076;-67
2022/07/02 09:00:10;;;;;;;1.40;0.65;;;;;;;20.07;47.95;97958.69;5008957;28;20056;-66
2022/07/02 09:02:37;;;;;;;1.15;0.50;;;;;;;20.01;46.69;97957.97;5008988;28;20050;-66
2022/07/02 09:05:05;;;;;;;0.60;0.50;;;;;;;20.10;47.58;97955.34;5008490;28;20119;-66
2022/07/02 09:07:34;;;;;;;1.05;0.50;;;;;;;20.08;48.02;97947.41;5008425;28;20046;-66
2022/07/02 09:10:01;;;;;;;1.35;0.50;;;;;;;20.16;47.95;97939.59;5023853;28;20049;-66
2022/07/02 09:12:29;;;;;;;1.17;0.40;;;;;;;20.32;48.04;97934.63;5009401;28;20508;-67
2022/07/02 09:14:57;;;;;;;1.38;0.60;;;;;;;20.42;47.91;97939.13;5008867;28;20158;-66
2022/07/02 09:17:24;;;;;;;0.60;0.30;;;;;;;20.52;47.74;97930.69;5007640;28;20045;-66
2022/07/02 09:19:51;;;;;;;1.55;0.40;;;;;;;20.58;47.38;97917.66;5021603;28;20346;-66
2022/07/02 09:22:17;;;;;;;2.85;0.60;;;;;;;20.66;48.66;97915.03;5017525;28;20038;-66
2022/07/02 09:24:44;;;;;;;1.95;0.65;;;;;;;20.58;47.25;97918.47;5007761;28;20038;-66
2022/07/02 09:27:15;;;;;;;1.15;0.40;;;;;;;20.70;45.78;97926.22;5005805;28;20045;-66
2022/07/02 09:29:52;;;;;;;2.45;0.65;;;;;;;20.76;46.45;97927.75;5009249;28;20049;-67
2022/07/02 09:32:20;;;;;;;0.75;0.40;;;;;;;20.80;45.05;97933.47;5007700;28;20521;-66
2022/07/02 09:34:49;;;;;;;1.38;0.40;;;;;;;21.00;46.08;97934.19;5008874;28;20461;-66
2022/07/02 09:37:17;;;;;;;2.75;0.57;;;;;;;21.11;46.92;97938.34;5007700;28;20034;-66
2022/07/02 09:39:46;;;;;;;2.00;0.30;;;;;;;21.03;48.01;97939.91;5024996;28;20045;-66
2022/07/02 09:42:26;;;;;;;1.00;0.50;;;;;;;20.89;43.40;97941.84;5028488;28;20057;-67
2022/07/02 09:44:53;;;;;;;3.90;0.30;;;;;;;20.98;45.12;97940.00;5010735;28;20037;-67
2022/07/02 09:47:33;;;;;;;2.05;0.60;;;;;;;21.07;44.49;97942.84;5007952;28;20050;-67
2022/07/02 09:50:05;;;;;;;1.10;0.35;;;;;;;21.21;43.37;97948.34;5007718;28;20042;-66
2022/07/02 09:52:32;;;;;;;0.80;0.47;;;;;;;21.34;42.64;97952.19;5024226;28;20523;-66
2022/07/02 09:55:00;;;;;;;2.25;0.40;;;;;;;21.31;42.97;97936.28;5036091;28;20038;-66
2022/07/02 09:57:28;;;;;;;1.45;0.50;;;;;;;21.48;43.03;97948.59;5007704;28;20405;-66
2022/07/02 10:00:08;;;;;;;1.23;0.50;;;;;;;21.52;43.70;97946.88;5007952;28;20596;-67
2022/07/02 10:02:36;;;;;;;0.93;0.40;;;;;;;21.62;41.09;97938.34;5007691;28;20069;-67
2022/07/02 10:05:06;;;;;;;0.38;0.30;;;;;;;21.55;42.17;97932.44;5008277;28;20076;-67
2022/07/02 10:07:32;;;;;;;2.38;0.40;;;;;;;21.66;41.15;97939.34;5006853;28;20229;-67
2022/07/02 10:10:02;;;;;;;0.75;0.40;;;;;;;21.44;41.46;97938.19;5027009;28;20045;-67
2022/07/02 10:12:29;;;;;;;1.90;0.45;;;;;;;21.60;41.31;97932.34;5011340;28;20309;-67
2022/07/02 10:14:57;;;;;;;0.65;0.35;;;;;;;21.73;41.33;97927.09;5008168;28;20057;-67
2022/07/02 10:17:24;;;;;;;1.23;0.40;;;;;;;21.95;42.12;97931.81;5006491;28;20564;-66
2022/07/02 10:19:51;;;;;;;1.00;0.50;;;;;;;21.95;42.64;97918.03;5020590;28;20042;-66
2022/07/02 10:22:20;;;;;;;1.30;0.50;;;;;;;21.92;43.11;97922.22;5027412;28;20046;-66
2022/07/02 10:24:49;;;;;;;1.20;0.47;;;;;;;21.88;43.12;97909.38;5018804;28;20063;-66
2022/07/02 10:27:17;;;;;;;0.85;0.43;;;;;;;22.08;42.83;97908.88;5021085;28;20046;-66
2022/07/02 10:29:44;;;;;;;1.38;0.45;;;;;;;22.01;42.25;97918.72;5028937;28;20048;-66
2022/07/02 10:32:56;;;;;;;0.80;0.75;;;;;;;21.98;41.03;97916.59;5030178;28;20063;-66
2022/07/02 10:35:23;;;;;;;0.70;0.45;;;;;;;21.86;41.34;97917.97;5009959;28;20058;-66
2022/07/02 10:37:57;;;;;;;0.90;0.50;;;;;;;22.13;41.41;97916.19;5008042;28;20053;-66
2022/07/02 10:40:24;;;;;;;1.08;0.47;;;;;;;22.09;41.79;97912.44;5007755;28;20061;-66
2022/07/02 10:42:53;;;;;;;2.70;0.60;;;;;;;22.27;41.20;97909.78;5006930;28;20042;-66
2022/07/02 10:45:23;;;;;;;0.80;0.35;;;;;;;22.33;40.43;97905.75;5019919;28;20041;-66
2022/07/02 10:48:04;;;;;;;2.08;0.52;;;;;;;22.56;39.94;97901.00;5046354;28;20509;-66
2022/07/02 10:50:39;;;;;;;1.63;0.40;;;;;;;22.64;38.44;97904.13;5007387;28;20046;-66
2022/07/02 10:53:22;;;;;;;0.77;0.30;;;;;;;22.69;38.54;97891.00;5031905;28;20045;-66
2022/07/02 10:55:55;;;;;;;1.27;0.40;;;;;;;22.84;38.73;97895.28;5024249;28;20251;-66
2022/07/02 10:58:24;;;;;;;1.52;0.52;;;;;;;22.92;38.68;97890.91;5005893;28;20272;-67
2022/07/02 11:00:51;;;;;;;4.78;0.60;;;;;;;22.98;38.98;97891.56;5006518;28;20428;-66
2022/07/02 11:03:24;;;;;;;1.83;0.40;;;;;;;22.98;37.65;97886.03;5016761;28;20511;-66
2022/07/02 11:05:52;;;;;;;1.25;0.70;;;;;;;22.92;39.44;97884.59;5041224;28;20045;-66
2022/07/02 11:08:40;;;;;;;0.65;0.40;;;;;;;23.17;37.01;97879.41;5012157;28;20056;-67
2022/07/02 11:11:20;;;;;;;1.38;0.50;;;;;;;23.16;39.01;97881.38;5026902;28;20120;-67
2022/07/02 11:13:47;;;;;;;0.80;0.45;;;;;;;22.95;39.06;97886.69;5007577;28;20049;-67
2022/07/02 11:16:47;;;;;;;0.90;0.50;;;;;;;22.85;39.11;97888.59;5007392;28;20042;-66
2022/07/02 11:19:22;;;;;;;0.40;0.40;;;;;;;22.87;37.74;97871.72;5002523;28;20057;-66
2022/07/02 11:21:50;;;;;;;1.08;0.35;;;;;;;22.82;37.29;97871.88;5026873;28;20041;-66
2022/07/02 11:24:26;;;;;;;1.13;0.40;;;;;;;22.74;36.53;97868.78;5013355;28;20052;-66
2022/07/02 11:26:53;;;;;;;0.80;0.30;;;;;;;22.97;37.95;97863.13;5007165;28;20045;-66
2022/07/02 11:29:20;;;;;;;1.13;0.40;;;;;;;23.17;38.22;97866.41;5012748;28;20045;-66
2022/07/02 11:31:49;;;;;;;1.20;0.40;;;;;;;23.40;37.27;97866.28;5014746;28;20041;-66
2022/07/02 11:34:19;;;;;;;1.58;0.40;;;;;;;23.61;36.97;97866.44;5030275;28;20041;-66
2022/07/02 11:36:46;;;;;;;0.85;0.40;;;;;;;23.74;35.11;97853.56;5027652;28;20052;-67
2022/07/02 11:39:18;;;;;;;0.50;0.32;;;;;;;23.47;35.39;97846.44;5034615;28;20455;-67
2022/07/02 11:41:46;;;;;;;1.63;0.30;;;;;;;23.21;36.76;97856.34;5040827;28;20045;-66
2022/07/02 11:44:21;;;;;;;1.13;0.35;;;;;;;23.22;37.47;97854.41;5028292;28;20049;-66